sensor_id;sensor_type;location;lat;lon;timestamp;temperature;humidity
46440;DHT22;32138;50.966;6.968;2023-02-28T00:00:04;4.00;72.50
46440;DHT22;32138;50.966;6.968;2023-02-28T00:01:13;3.80;73.00
46440;DHT22;32138;50.966;6.968;2023-02-28T00:02:15;3.90;72.90
46440;DHT22;32138;50.966;6.968;2023-02-28T00:03:18;3.90;73.00
46440;DHT22;32138;50.966;6.968;2023-02-28T00:04:18;3.70;73.10
46440;DHT22;32138;50.966;6.968;2023-02-28T00:05:21;3.60;73.70
46440;DHT22;32138;50.966;6.968;2023-02-28T00:06:23;3.60;74.10
46440;DHT22;32138;50.966;6.968;2023-02-28T00:07:24;3.60;74.10
46440;DHT22;32138;50.966;6.968;2023-02-28T00:08:25;3.70;74.10
46440;DHT22;32138;50.966;6.968;2023-02-28T00:09:27;3.60;74.10
46440;DHT22;32138;50.966;6.968;2023-02-28T00:10:29;3.60;74.50
46440;DHT22;32138;50.966;6.968;2023-02-28T00:11:31;3.70;74.10
46440;DHT22;32138;50.966;6.968;2023-02-28T00:12:33;3.70;74.00
46440;DHT22;32138;50.966;6.968;2023-02-28T00:13:43;3.70;74.20
46440;DHT22;32138;50.966;6.968;2023-02-28T00:14:46;3.60;74.10
46440;DHT22;32138;50.966;6.968;2023-02-28T00:15:47;3.40;74.90
46440;DHT22;32138;50.966;6.968;2023-02-28T00:16:48;3.40;75.30
46440;DHT22;32138;50.966;6.968;2023-02-28T00:17:49;3.50;75.00
46440;DHT22;32138;50.966;6.968;2023-02-28T00:18:50;3.50;75.10
46440;DHT22;32138;50.966;6.968;2023-02-28T00:19:51;3.60;74.80
46440;DHT22;32138;50.966;6.968;2023-02-28T00:20:52;3.70;75.20
46440;DHT22;32138;50.966;6.968;2023-02-28T00:21:53;3.70;74.30
46440;DHT22;32138;50.966;6.968;2023-02-28T00:22:55;3.70;74.50
46440;DHT22;32138;50.966;6.968;2023-02-28T00:23:55;3.70;74.50
46440;DHT22;32138;50.966;6.968;2023-02-28T00:24:56;3.80;74.40
46440;DHT22;32138;50.966;6.968;2023-02-28T00:25:57;3.90;73.90
46440;DHT22;32138;50.966;6.968;2023-02-28T00:26:58;3.90;73.80
46440;DHT22;32138;50.966;6.968;2023-02-28T00:27:58;4.00;73.70
46440;DHT22;32138;50.966;6.968;2023-02-28T00:28:59;4.10;73.40
46440;DHT22;32138;50.966;6.968;2023-02-28T00:30:00;4.20;73.50
46440;DHT22;32138;50.966;6.968;2023-02-28T00:31:01;4.10;73.30
46440;DHT22;32138;50.966;6.968;2023-02-28T00:32:02;4.00;73.70
46440;DHT22;32138;50.966;6.968;2023-02-28T00:33:03;4.00;73.90
46440;DHT22;32138;50.966;6.968;2023-02-28T00:34:04;4.10;73.40
46440;DHT22;32138;50.966;6.968;2023-02-28T00:35:06;4.10;73.90
46440;DHT22;32138;50.966;6.968;2023-02-28T00:36:10;4.20;73.90
46440;DHT22;32138;50.966;6.968;2023-02-28T00:37:11;4.20;74.00
46440;DHT22;32138;50.966;6.968;2023-02-28T00:38:13;4.10;74.20
46440;DHT22;32138;50.966;6.968;2023-02-28T00:39:15;4.10;73.90
46440;DHT22;32138;50.966;6.968;2023-02-28T00:40:16;4.00;74.40
46440;DHT22;32138;50.966;6.968;2023-02-28T00:41:17;4.00;74.60
46440;DHT22;32138;50.966;6.968;2023-02-28T00:42:17;3.90;74.90
46440;DHT22;32138;50.966;6.968;2023-02-28T00:43:18;3.90;74.90
46440;DHT22;32138;50.966;6.968;2023-02-28T00:44:19;3.90;74.50
46440;DHT22;32138;50.966;6.968;2023-02-28T00:45:21;3.90;74.60
46440;DHT22;32138;50.966;6.968;2023-02-28T00:46:22;3.80;74.60
46440;DHT22;32138;50.966;6.968;2023-02-28T00:47:23;3.80;75.00
46440;DHT22;32138;50.966;6.968;2023-02-28T00:48:24;3.90;74.80
46440;DHT22;32138;50.966;6.968;2023-02-28T00:49:25;4.00;74.10
46440;DHT22;32138;50.966;6.968;2023-02-28T00:50:26;4.00;74.30
46440;DHT22;32138;50.966;6.968;2023-02-28T00:51:27;3.90;74.40
46440;DHT22;32138;50.966;6.968;2023-02-28T00:52:28;3.70;75.50
46440;DHT22;32138;50.966;6.968;2023-02-28T00:53:29;3.80;75.20
46440;DHT22;32138;50.966;6.968;2023-02-28T00:54:30;3.80;75.00
46440;DHT22;32138;50.966;6.968;2023-02-28T00:55:31;3.70;74.70
46440;DHT22;32138;50.966;6.968;2023-02-28T00:56:31;3.60;75.20
46440;DHT22;32138;50.966;6.968;2023-02-28T00:57:32;3.60;75.10
46440;DHT22;32138;50.966;6.968;2023-02-28T00:58:33;3.70;75.60
46440;DHT22;32138;50.966;6.968;2023-02-28T00:59:33;3.70;75.50
46440;DHT22;32138;50.966;6.968;2023-02-28T01:00:34;3.70;75.30
46440;DHT22;32138;50.966;6.968;2023-02-28T01:01:35;3.50;75.40
46440;DHT22;32138;50.966;6.968;2023-02-28T01:02:36;3.50;76.10
46440;DHT22;32138;50.966;6.968;2023-02-28T01:03:37;3.60;76.00
46440;DHT22;32138;50.966;6.968;2023-02-28T01:04:38;3.70;75.70
46440;DHT22;32138;50.966;6.968;2023-02-28T01:05:39;3.70;75.30
46440;DHT22;32138;50.966;6.968;2023-02-28T01:06:41;3.70;75.10
46440;DHT22;32138;50.966;6.968;2023-02-28T01:07:42;3.70;74.90
46440;DHT22;32138;50.966;6.968;2023-02-28T01:08:43;3.70;75.20
46440;DHT22;32138;50.966;6.968;2023-02-28T01:09:43;3.80;75.40
46440;DHT22;32138;50.966;6.968;2023-02-28T01:10:44;3.70;75.60
46440;DHT22;32138;50.966;6.968;2023-02-28T01:11:45;3.80;75.30
46440;DHT22;32138;50.966;6.968;2023-02-28T01:12:46;3.90;75.00
46440;DHT22;32138;50.966;6.968;2023-02-28T01:13:47;3.90;74.80
46440;DHT22;32138;50.966;6.968;2023-02-28T01:14:48;3.80;75.00
46440;DHT22;32138;50.966;6.968;2023-02-28T01:15:55;3.80;75.10
46440;DHT22;32138;50.966;6.968;2023-02-28T01:16:56;3.80;75.20
46440;DHT22;32138;50.966;6.968;2023-02-28T01:17:56;3.80;75.00
46440;DHT22;32138;50.966;6.968;2023-02-28T01:18:57;3.80;75.10
46440;DHT22;32138;50.966;6.968;2023-02-28T01:19:58;3.70;75.30
46440;DHT22;32138;50.966;6.968;2023-02-28T01:21:06;3.60;75.80
46440;DHT22;32138;50.966;6.968;2023-02-28T01:22:11;3.60;75.80
46440;DHT22;32138;50.966;6.968;2023-02-28T01:23:12;3.50;75.90
46440;DHT22;32138;50.966;6.968;2023-02-28T01:24:13;3.40;76.30
46440;DHT22;32138;50.966;6.968;2023-02-28T01:25:14;3.40;75.90
46440;DHT22;32138;50.966;6.968;2023-02-28T01:26:20;3.40;76.20
46440;DHT22;32138;50.966;6.968;2023-02-28T01:27:22;3.50;76.10
46440;DHT22;32138;50.966;6.968;2023-02-28T01:28:22;3.40;76.00
46440;DHT22;32138;50.966;6.968;2023-02-28T01:29:23;3.30;76.80
46440;DHT22;32138;50.966;6.968;2023-02-28T01:30:24;3.20;77.20
46440;DHT22;32138;50.966;6.968;2023-02-28T01:31:25;3.30;77.20
46440;DHT22;32138;50.966;6.968;2023-02-28T01:32:26;3.40;77.30
46440;DHT22;32138;50.966;6.968;2023-02-28T01:33:26;3.40;76.90
46440;DHT22;32138;50.966;6.968;2023-02-28T01:34:28;3.30;76.90
46440;DHT22;32138;50.966;6.968;2023-02-28T01:35:32;3.30;76.90
46440;DHT22;32138;50.966;6.968;2023-02-28T01:36:34;3.30;77.40
46440;DHT22;32138;50.966;6.968;2023-02-28T01:37:34;3.20;77.40
46440;DHT22;32138;50.966;6.968;2023-02-28T01:38:35;3.20;77.50
46440;DHT22;32138;50.966;6.968;2023-02-28T01:39:36;3.30;77.80
46440;DHT22;32138;50.966;6.968;2023-02-28T01:40:37;3.40;77.70
46440;DHT22;32138;50.966;6.968;2023-02-28T01:41:38;3.50;77.40
46440;DHT22;32138;50.966;6.968;2023-02-28T01:42:39;3.50;76.90
46440;DHT22;32138;50.966;6.968;2023-02-28T01:46:09;3.80;76.40
46440;DHT22;32138;50.966;6.968;2023-02-28T01:47:10;3.60;76.40
46440;DHT22;32138;50.966;6.968;2023-02-28T01:48:11;3.60;76.40
46440;DHT22;32138;50.966;6.968;2023-02-28T01:49:15;3.60;76.40
46440;DHT22;32138;50.966;6.968;2023-02-28T01:50:20;3.70;76.20
46440;DHT22;32138;50.966;6.968;2023-02-28T01:51:40;3.70;76.30
46440;DHT22;32138;50.966;6.968;2023-02-28T01:52:51;3.70;76.40
46440;DHT22;32138;50.966;6.968;2023-02-28T01:53:58;3.50;76.40
46440;DHT22;32138;50.966;6.968;2023-02-28T01:55:02;3.40;76.10
46440;DHT22;32138;50.966;6.968;2023-02-28T01:56:06;3.30;77.10
46440;DHT22;32138;50.966;6.968;2023-02-28T01:57:15;3.40;76.80
46440;DHT22;32138;50.966;6.968;2023-02-28T01:58:17;3.40;77.00
46440;DHT22;32138;50.966;6.968;2023-02-28T01:59:28;3.50;77.00
46440;DHT22;32138;50.966;6.968;2023-02-28T02:00:33;3.50;76.80
46440;DHT22;32138;50.966;6.968;2023-02-28T02:01:34;3.60;76.70
46440;DHT22;32138;50.966;6.968;2023-02-28T02:02:36;3.60;77.50
46440;DHT22;32138;50.966;6.968;2023-02-28T02:03:37;3.60;76.80
46440;DHT22;32138;50.966;6.968;2023-02-28T02:04:46;3.70;76.40
46440;DHT22;32138;50.966;6.968;2023-02-28T02:05:52;3.70;76.80
46440;DHT22;32138;50.966;6.968;2023-02-28T02:06:52;3.70;76.90
46440;DHT22;32138;50.966;6.968;2023-02-28T02:08:02;3.70;76.60
46440;DHT22;32138;50.966;6.968;2023-02-28T02:09:26;3.70;76.40
46440;DHT22;32138;50.966;6.968;2023-02-28T02:12:05;3.80;76.60
46440;DHT22;32138;50.966;6.968;2023-02-28T02:13:27;3.80;76.30
46440;DHT22;32138;50.966;6.968;2023-02-28T02:14:40;3.80;76.60
46440;DHT22;32138;50.966;6.968;2023-02-28T02:15:53;3.80;76.50
46440;DHT22;32138;50.966;6.968;2023-02-28T02:17:42;3.80;76.30
46440;DHT22;32138;50.966;6.968;2023-02-28T02:20:46;3.70;77.20
46440;DHT22;32138;50.966;6.968;2023-02-28T02:30:59;3.20;76.80
46440;DHT22;32138;50.966;6.968;2023-02-28T02:42:46;3.60;75.60
46440;DHT22;32138;50.966;6.968;2023-02-28T02:46:39;3.60;75.50
46440;DHT22;32138;50.966;6.968;2023-02-28T02:47:43;3.70;75.20
46440;DHT22;32138;50.966;6.968;2023-02-28T02:48:46;3.70;75.00
46440;DHT22;32138;50.966;6.968;2023-02-28T02:49:51;3.60;74.90
46440;DHT22;32138;50.966;6.968;2023-02-28T02:50:56;3.60;74.80
46440;DHT22;32138;50.966;6.968;2023-02-28T02:52:05;3.40;76.10
46440;DHT22;32138;50.966;6.968;2023-02-28T02:53:08;3.40;76.10
46440;DHT22;32138;50.966;6.968;2023-02-28T02:54:19;3.40;76.10
46440;DHT22;32138;50.966;6.968;2023-02-28T02:55:22;3.40;75.80
46440;DHT22;32138;50.966;6.968;2023-02-28T02:56:27;3.40;75.90
46440;DHT22;32138;50.966;6.968;2023-02-28T02:57:51;3.40;75.80
46440;DHT22;32138;50.966;6.968;2023-02-28T02:58:58;3.50;75.40
46440;DHT22;32138;50.966;6.968;2023-02-28T03:00:03;3.50;75.20
46440;DHT22;32138;50.966;6.968;2023-02-28T03:01:05;3.60;74.50
46440;DHT22;32138;50.966;6.968;2023-02-28T03:02:11;3.70;74.00
46440;DHT22;32138;50.966;6.968;2023-02-28T03:03:14;3.70;73.70
46440;DHT22;32138;50.966;6.968;2023-02-28T03:04:22;3.70;73.40
46440;DHT22;32138;50.966;6.968;2023-02-28T03:05:30;3.70;73.10
46440;DHT22;32138;50.966;6.968;2023-02-28T03:06:34;3.70;72.70
46440;DHT22;32138;50.966;6.968;2023-02-28T03:07:35;3.70;72.60
46440;DHT22;32138;50.966;6.968;2023-02-28T03:08:37;3.60;72.30
46440;DHT22;32138;50.966;6.968;2023-02-28T03:09:38;3.60;73.00
46440;DHT22;32138;50.966;6.968;2023-02-28T03:11:44;3.60;72.50
46440;DHT22;32138;50.966;6.968;2023-02-28T03:17:24;3.50;72.70
46440;DHT22;32138;50.966;6.968;2023-02-28T03:21:37;3.40;72.30
46440;DHT22;32138;50.966;6.968;2023-02-28T03:22:55;3.30;72.30
46440;DHT22;32138;50.966;6.968;2023-02-28T03:24:16;3.30;73.30
46440;DHT22;32138;50.966;6.968;2023-02-28T03:26:24;3.40;73.50
46440;DHT22;32138;50.966;6.968;2023-02-28T03:27:39;3.40;73.00
46440;DHT22;32138;50.966;6.968;2023-02-28T03:29:08;3.50;72.60
46440;DHT22;32138;50.966;6.968;2023-02-28T03:30:23;3.60;71.80
46440;DHT22;32138;50.966;6.968;2023-02-28T03:32:10;3.60;71.70
46440;DHT22;32138;50.966;6.968;2023-02-28T03:33:14;3.60;71.70
46440;DHT22;32138;50.966;6.968;2023-02-28T03:36:21;3.50;72.00
46440;DHT22;32138;50.966;6.968;2023-02-28T03:37:10;3.50;72.50
46440;DHT22;32138;50.966;6.968;2023-02-28T03:38:27;3.50;72.10
46440;DHT22;32138;50.966;6.968;2023-02-28T03:39:55;3.30;72.70
46440;DHT22;32138;50.966;6.968;2023-02-28T03:41:16;3.20;73.00
46440;DHT22;32138;50.966;6.968;2023-02-28T03:42:22;3.10;73.10
46440;DHT22;32138;50.966;6.968;2023-02-28T03:43:29;3.00;73.50
46440;DHT22;32138;50.966;6.968;2023-02-28T03:44:41;3.00;73.90
46440;DHT22;32138;50.966;6.968;2023-02-28T03:45:44;3.10;74.20
46440;DHT22;32138;50.966;6.968;2023-02-28T03:46:54;3.10;74.30
46440;DHT22;32138;50.966;6.968;2023-02-28T03:49:23;3.20;74.00
46440;DHT22;32138;50.966;6.968;2023-02-28T03:50:38;3.20;74.00
46440;DHT22;32138;50.966;6.968;2023-02-28T03:51:41;3.20;73.80
46440;DHT22;32138;50.966;6.968;2023-02-28T03:52:50;3.10;74.50
46440;DHT22;32138;50.966;6.968;2023-02-28T03:53:57;3.10;74.60
46440;DHT22;32138;50.966;6.968;2023-02-28T03:55:10;3.00;75.10
46440;DHT22;32138;50.966;6.968;2023-02-28T03:56:33;3.00;75.10
46440;DHT22;32138;50.966;6.968;2023-02-28T03:59:15;3.00;75.40
46440;DHT22;32138;50.966;6.968;2023-02-28T04:00:31;3.10;75.80
46440;DHT22;32138;50.966;6.968;2023-02-28T04:01:39;3.20;75.30
46440;DHT22;32138;50.966;6.968;2023-02-28T04:02:42;3.10;75.30
46440;DHT22;32138;50.966;6.968;2023-02-28T04:03:43;3.00;75.80
46440;DHT22;32138;50.966;6.968;2023-02-28T04:04:43;3.10;75.90
46440;DHT22;32138;50.966;6.968;2023-02-28T04:05:55;3.10;75.90
46440;DHT22;32138;50.966;6.968;2023-02-28T04:07:08;3.10;75.60
46440;DHT22;32138;50.966;6.968;2023-02-28T04:08:09;3.10;76.10
46440;DHT22;32138;50.966;6.968;2023-02-28T04:09:12;3.20;76.00
46440;DHT22;32138;50.966;6.968;2023-02-28T04:10:15;3.20;76.10
46440;DHT22;32138;50.966;6.968;2023-02-28T04:12:31;3.10;76.50
46440;DHT22;32138;50.966;6.968;2023-02-28T04:13:32;3.00;77.40
46440;DHT22;32138;50.966;6.968;2023-02-28T04:14:33;3.00;77.40
46440;DHT22;32138;50.966;6.968;2023-02-28T04:15:33;3.00;77.10
46440;DHT22;32138;50.966;6.968;2023-02-28T04:16:37;3.00;77.20
46440;DHT22;32138;50.966;6.968;2023-02-28T04:17:39;3.00;77.10
46440;DHT22;32138;50.966;6.968;2023-02-28T04:18:39;3.00;78.10
46440;DHT22;32138;50.966;6.968;2023-02-28T04:19:40;3.00;77.70
46440;DHT22;32138;50.966;6.968;2023-02-28T04:20:41;3.10;77.40
46440;DHT22;32138;50.966;6.968;2023-02-28T04:21:44;3.10;77.50
46440;DHT22;32138;50.966;6.968;2023-02-28T04:22:47;3.10;77.60
46440;DHT22;32138;50.966;6.968;2023-02-28T04:23:47;3.10;77.60
46440;DHT22;32138;50.966;6.968;2023-02-28T04:24:48;3.10;77.20
46440;DHT22;32138;50.966;6.968;2023-02-28T04:25:49;3.10;77.50
46440;DHT22;32138;50.966;6.968;2023-02-28T04:26:53;3.10;77.20
46440;DHT22;32138;50.966;6.968;2023-02-28T04:27:55;3.00;77.50
46440;DHT22;32138;50.966;6.968;2023-02-28T04:28:56;3.10;77.70
46440;DHT22;32138;50.966;6.968;2023-02-28T04:29:58;3.10;77.60
46440;DHT22;32138;50.966;6.968;2023-02-28T04:31:01;3.20;77.50
46440;DHT22;32138;50.966;6.968;2023-02-28T04:32:03;3.20;77.30
46440;DHT22;32138;50.966;6.968;2023-02-28T04:33:04;3.30;77.10
46440;DHT22;32138;50.966;6.968;2023-02-28T04:34:05;3.20;76.60
46440;DHT22;32138;50.966;6.968;2023-02-28T04:35:07;3.10;76.90
46440;DHT22;32138;50.966;6.968;2023-02-28T04:36:08;3.10;77.90
46440;DHT22;32138;50.966;6.968;2023-02-28T04:37:09;3.00;77.80
46440;DHT22;32138;50.966;6.968;2023-02-28T04:38:10;3.10;77.50
46440;DHT22;32138;50.966;6.968;2023-02-28T04:39:10;3.10;77.30
46440;DHT22;32138;50.966;6.968;2023-02-28T04:40:11;2.90;77.60
46440;DHT22;32138;50.966;6.968;2023-02-28T04:41:13;2.90;77.60
46440;DHT22;32138;50.966;6.968;2023-02-28T04:42:14;2.70;77.90
46440;DHT22;32138;50.966;6.968;2023-02-28T04:43:15;2.70;78.00
46440;DHT22;32138;50.966;6.968;2023-02-28T04:44:16;2.60;78.10
46440;DHT22;32138;50.966;6.968;2023-02-28T04:45:17;2.60;79.10
46440;DHT22;32138;50.966;6.968;2023-02-28T04:46:19;2.60;78.40
46440;DHT22;32138;50.966;6.968;2023-02-28T04:47:20;2.70;77.90
46440;DHT22;32138;50.966;6.968;2023-02-28T04:48:21;2.70;77.80
46440;DHT22;32138;50.966;6.968;2023-02-28T04:49:21;2.70;77.80
46440;DHT22;32138;50.966;6.968;2023-02-28T04:50:22;2.70;77.70
46440;DHT22;32138;50.966;6.968;2023-02-28T04:51:23;2.70;77.80
46440;DHT22;32138;50.966;6.968;2023-02-28T04:52:24;2.70;77.90
46440;DHT22;32138;50.966;6.968;2023-02-28T04:53:24;2.70;77.90
46440;DHT22;32138;50.966;6.968;2023-02-28T04:54:25;2.70;77.60
46440;DHT22;32138;50.966;6.968;2023-02-28T04:55:26;2.70;77.90
46440;DHT22;32138;50.966;6.968;2023-02-28T04:56:26;2.70;77.60
46440;DHT22;32138;50.966;6.968;2023-02-28T04:57:27;2.80;77.70
46440;DHT22;32138;50.966;6.968;2023-02-28T04:58:28;2.80;77.30
46440;DHT22;32138;50.966;6.968;2023-02-28T04:59:30;2.90;77.10
46440;DHT22;32138;50.966;6.968;2023-02-28T05:00:30;2.90;76.30
46440;DHT22;32138;50.966;6.968;2023-02-28T05:01:33;2.90;76.20
46440;DHT22;32138;50.966;6.968;2023-02-28T05:02:35;3.00;76.40
46440;DHT22;32138;50.966;6.968;2023-02-28T05:03:35;2.80;76.60
46440;DHT22;32138;50.966;6.968;2023-02-28T05:04:36;2.60;76.90
46440;DHT22;32138;50.966;6.968;2023-02-28T05:05:37;2.60;77.20
46440;DHT22;32138;50.966;6.968;2023-02-28T05:06:38;2.70;77.20
46440;DHT22;32138;50.966;6.968;2023-02-28T05:07:39;2.60;77.00
46440;DHT22;32138;50.966;6.968;2023-02-28T05:08:39;2.50;77.10
46440;DHT22;32138;50.966;6.968;2023-02-28T05:09:41;2.50;77.30
46440;DHT22;32138;50.966;6.968;2023-02-28T05:10:41;2.40;78.10
46440;DHT22;32138;50.966;6.968;2023-02-28T05:11:42;2.40;77.90
46440;DHT22;32138;50.966;6.968;2023-02-28T05:12:43;2.40;77.50
46440;DHT22;32138;50.966;6.968;2023-02-28T05:13:44;2.30;77.50
46440;DHT22;32138;50.966;6.968;2023-02-28T05:14:45;2.40;77.80
46440;DHT22;32138;50.966;6.968;2023-02-28T05:15:46;2.30;78.00
46440;DHT22;32138;50.966;6.968;2023-02-28T05:16:46;2.40;78.40
46440;DHT22;32138;50.966;6.968;2023-02-28T05:17:47;2.30;78.40
46440;DHT22;32138;50.966;6.968;2023-02-28T05:18:48;2.40;78.00
46440;DHT22;32138;50.966;6.968;2023-02-28T05:19:49;2.40;77.40
46440;DHT22;32138;50.966;6.968;2023-02-28T05:20:49;2.20;77.70
46440;DHT22;32138;50.966;6.968;2023-02-28T05:21:53;2.20;77.90
46440;DHT22;32138;50.966;6.968;2023-02-28T05:22:55;2.30;77.90
46440;DHT22;32138;50.966;6.968;2023-02-28T05:23:59;2.30;78.20
46440;DHT22;32138;50.966;6.968;2023-02-28T05:25:02;2.30;77.70
46440;DHT22;32138;50.966;6.968;2023-02-28T05:26:04;2.40;77.30
46440;DHT22;32138;50.966;6.968;2023-02-28T05:27:04;2.40;77.70
46440;DHT22;32138;50.966;6.968;2023-02-28T05:28:06;2.40;77.40
46440;DHT22;32138;50.966;6.968;2023-02-28T05:29:07;2.40;77.50
46440;DHT22;32138;50.966;6.968;2023-02-28T05:30:09;2.40;77.10
46440;DHT22;32138;50.966;6.968;2023-02-28T05:31:11;2.50;77.40
46440;DHT22;32138;50.966;6.968;2023-02-28T05:32:12;2.50;76.90
46440;DHT22;32138;50.966;6.968;2023-02-28T05:33:13;2.30;77.00
46440;DHT22;32138;50.966;6.968;2023-02-28T05:34:14;2.30;77.20
46440;DHT22;32138;50.966;6.968;2023-02-28T05:35:16;2.40;77.20
46440;DHT22;32138;50.966;6.968;2023-02-28T05:36:17;2.40;77.30
46440;DHT22;32138;50.966;6.968;2023-02-28T05:37:18;2.30;77.20
46440;DHT22;32138;50.966;6.968;2023-02-28T05:38:18;2.20;77.70
46440;DHT22;32138;50.966;6.968;2023-02-28T05:39:20;2.30;77.50
46440;DHT22;32138;50.966;6.968;2023-02-28T05:40:20;2.40;77.10
46440;DHT22;32138;50.966;6.968;2023-02-28T05:41:21;2.50;76.70
46440;DHT22;32138;50.966;6.968;2023-02-28T05:42:22;2.60;76.60
46440;DHT22;32138;50.966;6.968;2023-02-28T05:43:23;2.60;76.40
46440;DHT22;32138;50.966;6.968;2023-02-28T05:44:24;2.60;76.10
46440;DHT22;32138;50.966;6.968;2023-02-28T05:45:25;2.60;75.90
46440;DHT22;32138;50.966;6.968;2023-02-28T05:46:26;2.60;75.90
46440;DHT22;32138;50.966;6.968;2023-02-28T05:47:26;2.40;75.70
46440;DHT22;32138;50.966;6.968;2023-02-28T05:48:27;2.50;75.70
46440;DHT22;32138;50.966;6.968;2023-02-28T05:49:28;2.60;76.10
46440;DHT22;32138;50.966;6.968;2023-02-28T05:50:29;2.60;74.90
46440;DHT22;32138;50.966;6.968;2023-02-28T05:51:30;2.60;75.00
46440;DHT22;32138;50.966;6.968;2023-02-28T05:52:31;2.60;75.30
46440;DHT22;32138;50.966;6.968;2023-02-28T05:53:32;2.50;74.50
46440;DHT22;32138;50.966;6.968;2023-02-28T05:54:33;2.60;74.30
46440;DHT22;32138;50.966;6.968;2023-02-28T05:55:34;2.50;74.30
46440;DHT22;32138;50.966;6.968;2023-02-28T05:56:36;2.60;74.40
46440;DHT22;32138;50.966;6.968;2023-02-28T05:57:39;2.60;74.40
46440;DHT22;32138;50.966;6.968;2023-02-28T05:58:40;2.70;74.30
46440;DHT22;32138;50.966;6.968;2023-02-28T05:59:40;2.70;73.70
46440;DHT22;32138;50.966;6.968;2023-02-28T06:00:41;2.60;73.90
46440;DHT22;32138;50.966;6.968;2023-02-28T06:01:43;2.50;73.70
46440;DHT22;32138;50.966;6.968;2023-02-28T06:02:48;2.60;74.30
46440;DHT22;32138;50.966;6.968;2023-02-28T06:03:49;2.60;74.50
46440;DHT22;32138;50.966;6.968;2023-02-28T06:04:50;2.60;73.60
46440;DHT22;32138;50.966;6.968;2023-02-28T06:05:50;2.60;73.70
46440;DHT22;32138;50.966;6.968;2023-02-28T06:06:51;2.50;73.40
46440;DHT22;32138;50.966;6.968;2023-02-28T06:07:52;2.50;73.60
46440;DHT22;32138;50.966;6.968;2023-02-28T06:08:53;2.60;73.80
46440;DHT22;32138;50.966;6.968;2023-02-28T06:09:54;2.60;73.70
46440;DHT22;32138;50.966;6.968;2023-02-28T06:10:55;2.50;73.30
46440;DHT22;32138;50.966;6.968;2023-02-28T06:11:58;2.50;73.30
46440;DHT22;32138;50.966;6.968;2023-02-28T06:13:04;2.50;73.70
46440;DHT22;32138;50.966;6.968;2023-02-28T06:14:06;2.50;73.30
46440;DHT22;32138;50.966;6.968;2023-02-28T06:15:16;2.60;73.00
46440;DHT22;32138;50.966;6.968;2023-02-28T06:16:17;2.60;72.80
46440;DHT22;32138;50.966;6.968;2023-02-28T06:17:17;2.60;73.20
46440;DHT22;32138;50.966;6.968;2023-02-28T06:18:18;2.70;73.00
46440;DHT22;32138;50.966;6.968;2023-02-28T06:19:19;2.80;72.80
46440;DHT22;32138;50.966;6.968;2023-02-28T06:20:20;2.80;72.90
46440;DHT22;32138;50.966;6.968;2023-02-28T06:21:20;2.90;72.80
46440;DHT22;32138;50.966;6.968;2023-02-28T06:22:21;2.90;72.70
46440;DHT22;32138;50.966;6.968;2023-02-28T06:23:23;2.90;72.50
46440;DHT22;32138;50.966;6.968;2023-02-28T06:24:25;3.00;72.40
46440;DHT22;32138;50.966;6.968;2023-02-28T06:25:28;3.00;72.50
46440;DHT22;32138;50.966;6.968;2023-02-28T06:26:29;3.00;72.70
46440;DHT22;32138;50.966;6.968;2023-02-28T06:27:32;3.00;74.50
46440;DHT22;32138;50.966;6.968;2023-02-28T06:28:33;3.00;76.60
46440;DHT22;32138;50.966;6.968;2023-02-28T06:29:35;2.90;75.40
46440;DHT22;32138;50.966;6.968;2023-02-28T06:30:37;2.90;76.90
46440;DHT22;32138;50.966;6.968;2023-02-28T06:31:38;2.90;75.80
46440;DHT22;32138;50.966;6.968;2023-02-28T06:32:39;3.00;73.80
46440;DHT22;32138;50.966;6.968;2023-02-28T06:33:41;3.00;73.00
46440;DHT22;32138;50.966;6.968;2023-02-28T06:34:43;2.90;73.40
46440;DHT22;32138;50.966;6.968;2023-02-28T06:35:46;3.00;73.30
46440;DHT22;32138;50.966;6.968;2023-02-28T06:36:50;2.90;73.10
46440;DHT22;32138;50.966;6.968;2023-02-28T06:37:51;2.90;73.00
46440;DHT22;32138;50.966;6.968;2023-02-28T06:38:52;2.90;73.10
46440;DHT22;32138;50.966;6.968;2023-02-28T06:39:55;3.00;72.90
46440;DHT22;32138;50.966;6.968;2023-02-28T06:40:58;2.90;72.80
46440;DHT22;32138;50.966;6.968;2023-02-28T06:41:59;2.80;73.10
46440;DHT22;32138;50.966;6.968;2023-02-28T06:43:00;2.80;73.10
46440;DHT22;32138;50.966;6.968;2023-02-28T06:44:01;2.80;73.20
46440;DHT22;32138;50.966;6.968;2023-02-28T06:45:02;2.70;74.00
46440;DHT22;32138;50.966;6.968;2023-02-28T06:46:12;2.80;73.40
46440;DHT22;32138;50.966;6.968;2023-02-28T06:47:14;2.80;73.10
46440;DHT22;32138;50.966;6.968;2023-02-28T06:48:14;2.80;73.10
46440;DHT22;32138;50.966;6.968;2023-02-28T06:49:16;2.80;73.20
46440;DHT22;32138;50.966;6.968;2023-02-28T06:50:17;2.80;72.90
46440;DHT22;32138;50.966;6.968;2023-02-28T06:51:20;2.90;72.70
46440;DHT22;32138;50.966;6.968;2023-02-28T06:52:22;2.90;72.60
46440;DHT22;32138;50.966;6.968;2023-02-28T06:53:23;2.80;72.70
46440;DHT22;32138;50.966;6.968;2023-02-28T06:54:24;2.90;72.40
46440;DHT22;32138;50.966;6.968;2023-02-28T06:55:24;2.70;72.80
46440;DHT22;32138;50.966;6.968;2023-02-28T06:56:25;2.70;72.80
46440;DHT22;32138;50.966;6.968;2023-02-28T06:57:30;2.70;73.00
46440;DHT22;32138;50.966;6.968;2023-02-28T06:58:31;2.70;72.80
46440;DHT22;32138;50.966;6.968;2023-02-28T06:59:32;2.70;72.70
46440;DHT22;32138;50.966;6.968;2023-02-28T07:00:33;2.80;72.70
46440;DHT22;32138;50.966;6.968;2023-02-28T07:01:34;2.90;72.20
46440;DHT22;32138;50.966;6.968;2023-02-28T07:02:36;2.90;72.10
46440;DHT22;32138;50.966;6.968;2023-02-28T07:03:37;2.90;72.00
46440;DHT22;32138;50.966;6.968;2023-02-28T07:04:38;2.90;71.80
46440;DHT22;32138;50.966;6.968;2023-02-28T07:05:40;2.90;71.60
46440;DHT22;32138;50.966;6.968;2023-02-28T07:06:41;2.90;71.50
46440;DHT22;32138;50.966;6.968;2023-02-28T07:07:42;2.90;71.70
46440;DHT22;32138;50.966;6.968;2023-02-28T07:08:45;2.90;71.50
46440;DHT22;32138;50.966;6.968;2023-02-28T07:09:46;2.80;71.40
46440;DHT22;32138;50.966;6.968;2023-02-28T07:10:47;2.80;71.80
46440;DHT22;32138;50.966;6.968;2023-02-28T07:11:48;2.80;71.90
46440;DHT22;32138;50.966;6.968;2023-02-28T07:12:49;2.90;71.60
46440;DHT22;32138;50.966;6.968;2023-02-28T07:13:50;2.90;71.30
46440;DHT22;32138;50.966;6.968;2023-02-28T07:14:51;3.00;70.60
46440;DHT22;32138;50.966;6.968;2023-02-28T07:16:05;3.00;70.90
46440;DHT22;32138;50.966;6.968;2023-02-28T07:17:10;2.90;71.10
46440;DHT22;32138;50.966;6.968;2023-02-28T07:18:12;3.00;70.70
46440;DHT22;32138;50.966;6.968;2023-02-28T07:19:13;3.10;70.40
46440;DHT22;32138;50.966;6.968;2023-02-28T07:20:13;3.10;70.60
46440;DHT22;32138;50.966;6.968;2023-02-28T07:21:15;3.20;70.40
46440;DHT22;32138;50.966;6.968;2023-02-28T07:22:16;3.20;70.00
46440;DHT22;32138;50.966;6.968;2023-02-28T07:23:17;3.20;70.10
46440;DHT22;32138;50.966;6.968;2023-02-28T07:24:18;3.20;70.30
46440;DHT22;32138;50.966;6.968;2023-02-28T07:25:19;3.10;70.00
46440;DHT22;32138;50.966;6.968;2023-02-28T07:26:20;3.20;69.70
46440;DHT22;32138;50.966;6.968;2023-02-28T07:27:21;3.30;69.20
46440;DHT22;32138;50.966;6.968;2023-02-28T07:28:25;3.40;69.00
46440;DHT22;32138;50.966;6.968;2023-02-28T07:29:26;3.40;69.50